createdAt,value
2023-01-05T00:00:45.599Z,97934.11
2023-01-05T00:03:15.621Z,97934.38
2023-01-05T00:05:48.057Z,97941.20
2023-01-05T00:08:17.239Z,97940.34
2023-01-05T00:11:03.737Z,97949.11
2023-01-05T00:13:50.654Z,97950.23
2023-01-05T00:16:37.370Z,97953.55
2023-01-05T00:19:24.565Z,97959.02
2023-01-05T00:22:11.475Z,97965.36
2023-01-05T00:24:40.747Z,97964.55
2023-01-05T00:27:11.370Z,97958.05
2023-01-05T00:29:40.712Z,97961.36
2023-01-05T00:32:09.955Z,97956.80
2023-01-05T00:34:39.116Z,97946.98
2023-01-05T00:37:08.438Z,97943.79
2023-01-05T00:39:37.685Z,97953.92
2023-01-05T00:42:06.973Z,97970.09
2023-01-05T00:44:36.318Z,97982.38
2023-01-05T00:47:05.613Z,97981.05
2023-01-05T00:49:35.009Z,97983.30
2023-01-05T00:52:04.395Z,97985.22
2023-01-05T00:54:33.635Z,97992.90
2023-01-05T00:57:02.950Z,97993.21
2023-01-05T00:59:32.316Z,97991.54
2023-01-05T01:02:01.640Z,97999.17
2023-01-05T01:04:32.149Z,97996.45
2023-01-05T01:07:03.879Z,98000.23
2023-01-05T01:09:33.125Z,97997.22
2023-01-05T01:12:05.255Z,97999.13
2023-01-05T01:14:34.740Z,98001.55
2023-01-05T01:17:05.038Z,97998.00
2023-01-05T01:19:34.520Z,98003.45
2023-01-05T01:22:03.796Z,98004.00
2023-01-05T01:24:33.085Z,97999.63
2023-01-05T01:27:02.369Z,98000.14
2023-01-05T01:29:31.691Z,98006.69
2023-01-05T01:32:01.098Z,98004.51
2023-01-05T01:34:30.282Z,98014.29
2023-01-05T01:37:00.236Z,98014.02
2023-01-05T01:39:29.374Z,98015.92
2023-01-05T01:41:58.580Z,98019.42
2023-01-05T01:44:44.315Z,98022.39
2023-01-05T01:47:17.714Z,98023.75
2023-01-05T01:49:46.991Z,98025.92
2023-01-05T01:52:16.705Z,98029.17
2023-01-05T01:54:46.449Z,98022.81
2023-01-05T01:57:16.547Z,98031.55
2023-01-05T01:59:46.565Z,98031.27
2023-01-05T02:02:16.632Z,98033.69
2023-01-05T02:04:46.522Z,98036.13
2023-01-05T02:07:17.202Z,98035.00
2023-01-05T02:09:46.416Z,98042.09
2023-01-05T02:12:17.924Z,98045.90
2023-01-05T02:15:06.325Z,98043.68
2023-01-05T02:17:39.980Z,98052.17
2023-01-05T02:20:26.831Z,98048.58
2023-01-05T02:23:12.753Z,98060.00
2023-01-05T02:25:59.969Z,98059.45
2023-01-05T02:28:30.753Z,98062.12
2023-01-05T02:31:18.317Z,98059.63
2023-01-05T02:34:06.000Z,98066.99
2023-01-05T02:36:54.440Z,98071.03
2023-01-05T02:39:25.136Z,98071.81
2023-01-05T02:42:07.914Z,98081.08
2023-01-05T02:44:37.186Z,98080.25
2023-01-05T02:47:08.225Z,98085.11
2023-01-05T02:49:39.159Z,98085.34
2023-01-05T02:52:08.472Z,98087.80
2023-01-05T02:54:39.227Z,98090.24
2023-01-05T02:57:15.521Z,98089.65
2023-01-05T02:59:45.730Z,98084.43
2023-01-05T03:02:20.014Z,98086.05
2023-01-05T03:04:49.870Z,98097.73
2023-01-05T03:07:20.019Z,98096.36
2023-01-05T03:09:49.259Z,98098.81
2023-01-05T03:12:40.854Z,98098.50
2023-01-05T03:15:23.210Z,98102.85
2023-01-05T03:17:54.120Z,98102.80
2023-01-05T03:20:24.245Z,98106.02
2023-01-05T03:23:11.498Z,98110.98
2023-01-05T03:25:58.364Z,98110.44
2023-01-05T03:28:49.508Z,98113.76
2023-01-05T03:31:49.583Z,98114.31
2023-01-05T03:34:46.613Z,98118.45
2023-01-05T03:37:17.504Z,98117.97
2023-01-05T03:39:46.987Z,98126.73
2023-01-05T03:42:16.805Z,98130.34
2023-01-05T03:44:46.672Z,98128.73
2023-01-05T03:47:16.723Z,98135.34
2023-01-05T03:49:46.057Z,98143.30
2023-01-05T03:52:15.895Z,98144.76
2023-01-05T03:54:45.903Z,98145.04
2023-01-05T03:57:15.950Z,98147.53
2023-01-05T03:59:45.856Z,98145.04
2023-01-05T04:02:15.945Z,98145.86
2023-01-05T04:04:45.893Z,98152.40
2023-01-05T04:07:18.683Z,98156.48
2023-01-05T04:09:47.069Z,98159.45
2023-01-05T04:12:17.031Z,98161.61
2023-01-05T04:14:46.777Z,98169.80
2023-01-05T04:17:16.820Z,98169.97
2023-01-05T04:19:46.909Z,98179.83
2023-01-05T04:22:18.962Z,98188.01
2023-01-05T04:24:47.499Z,98191.24
2023-01-05T04:27:16.889Z,98192.33
2023-01-05T04:29:46.806Z,98197.23
2023-01-05T04:32:16.695Z,98202.10
2023-01-05T04:34:46.968Z,98205.91
2023-01-05T04:37:16.825Z,98206.73
2023-01-05T04:39:47.095Z,98211.91
2023-01-05T04:42:16.889Z,98212.45
2023-01-05T04:44:46.832Z,98217.84
2023-01-05T04:47:16.845Z,98219.75
2023-01-05T04:49:46.938Z,98221.34
2023-01-05T04:52:16.184Z,98220.52
2023-01-05T04:54:46.011Z,98227.92
2023-01-05T04:57:15.313Z,98221.34
2023-01-05T04:59:44.907Z,98216.77
2023-01-05T05:02:15.021Z,98209.17
2023-01-05T05:04:45.189Z,98207.55
2023-01-05T05:07:15.034Z,98213.06
2023-01-05T05:09:45.014Z,98213.42
2023-01-05T05:12:15.380Z,98215.07
2023-01-05T05:14:49.195Z,98213.76
2023-01-05T05:17:15.991Z,98215.45
2023-01-05T05:19:47.123Z,98221.22
2023-01-05T05:22:16.963Z,98224.28
2023-01-05T05:24:46.329Z,98219.65
2023-01-05T05:27:15.991Z,98231.20
2023-01-05T05:29:45.967Z,98228.25
2023-01-05T05:32:15.955Z,98233.24
2023-01-05T05:34:46.092Z,98236.53
2023-01-05T05:37:16.002Z,98227.84
2023-01-05T05:39:46.092Z,98233.63
2023-01-05T05:42:16.045Z,98232.05
2023-01-05T05:44:46.305Z,98231.05
2023-01-05T05:47:16.504Z,98235.96
2023-01-05T05:49:46.481Z,98236.88
2023-01-05T05:52:16.145Z,98246.48
2023-01-05T05:54:46.126Z,98243.26
2023-01-05T05:57:16.115Z,98243.03
2023-01-05T05:59:46.046Z,98236.65
2023-01-05T06:02:20.708Z,98241.30
2023-01-05T06:04:48.318Z,98246.77
2023-01-05T06:07:17.556Z,98236.65
2023-01-05T06:09:46.851Z,98245.34
2023-01-05T06:12:17.172Z,98242.88
2023-01-05T06:14:46.952Z,98250.48
2023-01-05T06:17:16.878Z,98247.16
2023-01-05T06:19:47.190Z,98255.88
2023-01-05T06:22:17.124Z,98257.79
2023-01-05T06:24:47.118Z,98261.60
2023-01-05T06:27:17.145Z,98261.55
2023-01-05T06:29:46.325Z,98264.28
2023-01-05T06:32:16.239Z,98260.41
2023-01-05T06:34:46.307Z,98269.91
2023-01-05T06:37:16.306Z,98265.82
2023-01-05T06:39:46.294Z,98266.36
2023-01-05T06:42:20.231Z,98262.81
2023-01-05T06:44:46.951Z,98265.17
2023-01-05T06:47:16.208Z,98275.91
2023-01-05T06:49:46.341Z,98279.95
2023-01-05T06:52:17.011Z,98280.72
2023-01-05T06:54:47.222Z,98277.12
2023-01-05T06:57:17.295Z,98281.72
2023-01-05T06:59:49.802Z,98281.13
2023-01-05T07:02:19.154Z,98275.67
2023-01-05T07:04:48.605Z,98281.33
2023-01-05T07:07:17.895Z,98279.42
2023-01-05T07:09:48.637Z,98273.71
2023-01-05T07:12:19.773Z,98272.13
2023-01-05T07:14:52.897Z,98268.31
2023-01-05T07:17:19.758Z,98267.57
2023-01-05T07:19:49.029Z,98270.07
2023-01-05T07:22:18.339Z,98267.91
2023-01-05T07:24:47.640Z,98268.81
2023-01-05T07:27:17.489Z,98271.28
2023-01-05T07:29:49.758Z,98272.41
2023-01-05T07:32:19.282Z,98274.34
2023-01-05T07:34:55.501Z,98273.03
2023-01-05T07:37:19.168Z,98271.71
2023-01-05T07:39:48.269Z,98284.05
2023-01-05T07:42:17.469Z,98283.81
2023-01-05T07:44:47.399Z,98289.86
2023-01-05T07:47:17.473Z,98296.73
2023-01-05T07:49:47.167Z,98302.52
2023-01-05T07:52:16.471Z,98303.13
2023-01-05T07:54:46.495Z,98302.86
2023-01-05T07:57:16.622Z,98292.53
2023-01-05T07:59:46.549Z,98297.45
2023-01-05T08:02:17.028Z,98293.63
2023-01-05T08:04:46.802Z,98299.03
2023-01-05T08:07:16.788Z,98298.17
2023-01-05T08:10:04.403Z,98294.57
2023-01-05T08:12:33.719Z,98298.38
2023-01-05T08:15:02.990Z,98287.41
2023-01-05T08:17:32.241Z,98292.05
2023-01-05T08:20:04.419Z,98293.64
2023-01-05T08:22:33.624Z,98293.05
2023-01-05T08:25:02.822Z,98304.23
2023-01-05T08:27:32.098Z,98306.41
2023-01-05T08:30:01.319Z,98305.28
2023-01-05T08:32:30.594Z,98304.45
2023-01-05T08:34:59.884Z,98307.45
2023-01-05T08:37:29.195Z,98313.44
2023-01-05T08:39:58.433Z,98302.48
2023-01-05T08:42:27.660Z,98308.98
2023-01-05T08:44:59.689Z,98313.34
2023-01-05T08:47:28.987Z,98314.93
2023-01-05T08:49:58.339Z,98324.42
2023-01-05T08:52:27.787Z,98322.78
2023-01-05T08:54:57.002Z,98322.78
2023-01-05T08:57:26.348Z,98331.56
2023-01-05T08:59:55.635Z,98331.58
2023-01-05T09:02:26.007Z,98331.07
2023-01-05T09:04:55.560Z,98334.08
2023-01-05T09:07:25.352Z,98340.42
2023-01-05T09:09:55.191Z,98334.73
2023-01-05T09:12:29.173Z,98341.30
2023-01-05T09:14:55.819Z,98344.08
2023-01-05T09:17:25.226Z,98350.13
2023-01-05T09:19:54.524Z,98355.36
2023-01-05T09:22:23.756Z,98347.45
2023-01-05T09:24:54.386Z,98351.05
2023-01-05T09:27:23.736Z,98352.19
2023-01-05T09:29:52.946Z,98351.39
2023-01-05T09:32:22.210Z,98350.08
2023-01-05T09:34:54.371Z,98349.31
2023-01-05T09:37:29.333Z,98354.00
2023-01-05T09:40:00.535Z,98352.14
2023-01-05T09:42:30.598Z,98352.73
2023-01-05T09:45:01.262Z,98368.63
2023-01-05T09:47:40.164Z,98360.72
2023-01-05T09:50:09.921Z,98362.95
2023-01-05T09:52:39.185Z,98367.10
2023-01-05T09:55:18.324Z,98371.25
2023-01-05T09:57:49.399Z,98362.83
2023-01-05T10:00:18.855Z,98363.42
2023-01-05T10:02:55.358Z,98356.38
2023-01-05T10:05:25.030Z,98352.34
2023-01-05T10:08:04.701Z,98363.03
2023-01-05T10:10:50.872Z,98368.00
2023-01-05T10:13:27.945Z,98367.73
2023-01-05T10:15:57.279Z,98373.59
2023-01-05T10:18:27.270Z,98373.33
2023-01-05T10:21:03.814Z,98376.65
2023-01-05T10:23:37.568Z,98375.88
2023-01-05T10:26:17.415Z,98372.65
2023-01-05T10:28:54.177Z,98370.51
2023-01-05T10:31:26.933Z,98372.16
2023-01-05T10:34:01.655Z,98373.84
2023-01-05T10:37:06.526Z,98364.33
2023-01-05T10:39:19.716Z,98370.66
2023-01-05T10:41:53.081Z,98364.14
2023-01-05T10:44:32.560Z,98366.38
2023-01-05T10:47:01.915Z,98365.60
2023-01-05T10:49:31.902Z,98364.80
2023-01-05T10:52:04.321Z,98365.88
2023-01-05T10:54:40.944Z,98370.48
2023-01-05T10:57:34.087Z,98368.78
2023-01-05T11:00:02.656Z,98370.11
2023-01-05T11:02:32.509Z,98370.57
2023-01-05T11:05:03.265Z,98376.30
2023-01-05T11:07:32.640Z,98377.62
2023-01-05T11:10:01.911Z,98372.38
2023-01-05T11:12:31.149Z,98368.55
2023-01-05T11:15:00.503Z,98375.06
2023-01-05T11:17:29.973Z,98388.45
2023-01-05T11:19:59.270Z,98397.41
2023-01-05T11:22:32.318Z,98397.67
2023-01-05T11:25:19.351Z,98406.41
2023-01-05T11:27:54.214Z,98412.64
2023-01-05T11:30:21.364Z,98418.05
2023-01-05T11:32:50.661Z,98420.70
2023-01-05T11:35:21.297Z,98412.74
2023-01-05T11:37:50.599Z,98410.50
2023-01-05T11:40:20.278Z,98417.59
2023-01-05T11:42:49.524Z,98413.98
2023-01-05T11:45:22.348Z,98409.84
2023-01-05T11:47:52.198Z,98409.78
2023-01-05T11:50:25.991Z,98416.02
2023-01-05T11:53:00.020Z,98412.95
2023-01-05T11:55:32.730Z,98407.44
2023-01-05T11:58:03.407Z,98398.34
2023-01-05T12:00:50.719Z,98413.61
2023-01-05T12:03:36.403Z,98417.38
2023-01-05T12:06:23.664Z,98430.42
2023-01-05T12:09:10.833Z,98428.18
2023-01-05T12:11:41.396Z,98443.96
2023-01-05T12:14:21.200Z,98443.84
2023-01-05T12:16:57.500Z,98434.23
2023-01-05T12:19:45.559Z,98438.27
2023-01-05T12:22:17.067Z,98434.95
2023-01-05T12:24:56.954Z,98442.25
2023-01-05T12:27:30.324Z,98435.63
2023-01-05T12:35:50.067Z,98452.66
2023-01-05T12:38:20.820Z,98460.23
2023-01-05T12:40:54.541Z,98471.63
2023-01-05T12:43:25.222Z,98472.39
2023-01-05T12:45:55.785Z,98473.70
2023-01-05T12:48:29.233Z,98463.77
2023-01-05T12:51:05.801Z,98466.81
2023-01-05T12:53:39.440Z,98468.75
2023-01-05T12:56:12.838Z,98482.92
2023-01-05T12:58:42.724Z,98483.53
2023-01-05T13:01:13.422Z,98472.91
2023-01-05T13:03:43.795Z,98474.89
2023-01-05T13:06:13.989Z,98482.86
2023-01-05T13:08:44.780Z,98484.79
2023-01-05T13:11:30.925Z,98478.57
2023-01-05T13:14:06.927Z,98482.60
2023-01-05T13:16:40.076Z,98486.59
2023-01-05T13:19:11.256Z,98497.02
2023-01-05T13:21:41.891Z,98485.63
2023-01-05T13:24:19.930Z,98490.89
2023-01-05T13:26:49.211Z,98494.76
2023-01-05T13:29:19.858Z,98500.28
2023-01-05T13:31:53.617Z,98511.80
2023-01-05T13:34:30.733Z,98515.63
2023-01-05T13:37:10.325Z,98515.69
2023-01-05T13:39:44.056Z,98509.47
2023-01-05T13:42:25.330Z,98519.62
2023-01-05T13:45:01.846Z,98505.55
2023-01-05T13:47:37.494Z,98508.08
2023-01-05T13:50:16.291Z,98511.69
2023-01-05T13:52:50.278Z,98523.52
2023-01-05T13:55:25.767Z,98531.45
2023-01-05T13:57:50.698Z,98538.34
2023-01-05T14:00:24.236Z,98541.12
2023-01-05T14:03:00.671Z,98535.19
2023-01-05T14:05:36.460Z,98543.77
2023-01-05T14:08:06.057Z,98543.34
2023-01-05T14:10:35.461Z,98559.36
2023-01-05T14:13:06.512Z,98567.08
2023-01-05T14:15:38.366Z,98573.42
2023-01-05T14:18:08.267Z,98587.13
2023-01-05T14:20:38.568Z,98592.66
2023-01-05T14:23:27.510Z,98597.31
2023-01-05T14:26:01.620Z,98593.81
2023-01-05T14:28:35.336Z,98590.31
2023-01-05T14:31:22.132Z,98588.61
2023-01-05T14:34:01.591Z,98586.88
2023-01-05T14:36:31.679Z,98597.52
2023-01-05T14:39:00.850Z,98602.92
2023-01-05T14:41:30.116Z,98587.56
2023-01-05T14:44:02.581Z,98590.23
2023-01-05T14:46:33.157Z,98586.08
2023-01-05T14:49:03.422Z,98578.66
2023-01-05T14:51:33.232Z,98571.52
2023-01-05T14:54:04.450Z,98572.81
2023-01-05T14:56:37.579Z,98576.59
2023-01-05T14:59:08.186Z,98574.67
2023-01-05T15:01:45.053Z,98564.25
2023-01-05T15:04:22.367Z,98570.52
2023-01-05T15:06:53.113Z,98572.64
2023-01-05T15:09:26.507Z,98584.11
2023-01-05T15:11:57.556Z,98585.41
2023-01-05T15:14:44.869Z,98581.55
2023-01-05T15:17:15.484Z,98586.72
2023-01-05T15:19:51.968Z,98595.96
2023-01-05T15:22:37.240Z,98594.03
2023-01-05T15:24:57.434Z,98604.63
2023-01-05T15:27:33.878Z,98601.34
2023-01-05T15:30:07.224Z,98615.20
2023-01-05T15:32:36.604Z,98618.42
2023-01-05T15:35:07.132Z,98625.72
2023-01-05T15:37:37.056Z,98627.63
2023-01-05T15:40:08.479Z,98635.75
2023-01-05T15:42:42.258Z,98640.89
2023-01-05T15:45:19.070Z,98642.52
2023-01-05T15:47:52.166Z,98653.38
2023-01-05T15:50:22.020Z,98650.03
2023-01-05T15:53:03.847Z,98652.70
2023-01-05T15:55:33.034Z,98651.56
2023-01-05T15:58:04.210Z,98648.80
2023-01-05T16:00:34.763Z,98650.38
2023-01-05T16:03:04.152Z,98648.41
2023-01-05T16:05:39.809Z,98652.76
2023-01-05T16:08:10.624Z,98648.88
2023-01-05T16:10:40.471Z,98651.01
2023-01-05T16:13:10.989Z,98646.34
2023-01-05T16:15:42.211Z,98644.05
2023-01-05T16:18:12.751Z,98649.77
2023-01-05T16:20:42.915Z,98651.34
2023-01-05T16:23:16.600Z,98643.64
2023-01-05T16:25:52.188Z,98650.70
2023-01-05T16:28:22.500Z,98650.39
2023-01-05T16:30:51.824Z,98651.37
2023-01-05T16:33:28.188Z,98650.22
2023-01-05T16:36:10.803Z,98655.39
2023-01-05T16:38:40.186Z,98654.25
2023-01-05T16:41:10.394Z,98657.77
2023-01-05T16:43:40.907Z,98657.98
2023-01-05T16:46:21.107Z,98656.87
2023-01-05T16:48:53.640Z,98658.45
2023-01-05T16:51:23.030Z,98661.11
2023-01-05T16:53:56.155Z,98660.82
2023-01-05T16:56:35.825Z,98653.39
2023-01-05T16:59:06.425Z,98670.52
2023-01-05T17:01:36.747Z,98672.13
2023-01-05T17:04:07.322Z,98675.90
2023-01-05T17:06:39.600Z,98676.66
2023-01-05T17:09:10.315Z,98675.54
2023-01-05T17:11:41.073Z,98678.80
2023-01-05T17:14:10.991Z,98674.64
2023-01-05T17:16:43.298Z,98663.41
2023-01-05T17:19:16.620Z,98660.94
2023-01-05T17:21:46.924Z,98656.52
2023-01-05T17:24:16.863Z,98637.77
2023-01-05T17:26:46.793Z,98647.45
2023-01-05T17:29:18.137Z,98644.44
2023-01-05T17:31:47.777Z,98643.83
2023-01-05T17:34:17.587Z,98645.44
2023-01-05T17:36:47.679Z,98640.12
2023-01-05T17:39:18.077Z,98656.02
2023-01-05T17:41:47.883Z,98647.23
2023-01-05T17:44:17.997Z,98645.58
2023-01-05T17:46:48.012Z,98640.66
2023-01-05T17:49:21.240Z,98639.23
2023-01-05T17:51:50.502Z,98624.70
2023-01-05T17:54:19.889Z,98626.67
2023-01-05T17:56:49.186Z,98627.43
2023-01-05T17:59:18.677Z,98623.02
2023-01-05T18:01:48.727Z,98616.99
2023-01-05T18:04:18.666Z,98616.13
2023-01-05T18:09:18.763Z,98611.14
2023-01-05T18:11:50.138Z,98614.13
2023-01-05T18:14:19.424Z,98608.13
2023-01-05T18:16:49.650Z,98609.20
2023-01-05T18:19:18.906Z,98611.54
2023-01-05T18:21:48.729Z,98612.91
2023-01-05T18:24:20.134Z,98609.35
2023-01-05T18:26:54.001Z,98610.96
2023-01-05T18:29:21.280Z,98608.16
2023-01-05T18:31:50.507Z,98607.91
2023-01-05T18:34:19.788Z,98602.71
2023-01-05T18:36:55.643Z,98599.13
2023-01-05T18:39:20.257Z,98600.42
2023-01-05T18:41:49.546Z,98594.14
2023-01-05T18:44:18.845Z,98589.23
2023-01-05T18:46:48.812Z,98587.26
2023-01-05T18:49:18.733Z,98575.00
2023-01-05T18:51:48.652Z,98575.78
2023-01-05T18:54:18.822Z,98580.38
2023-01-05T18:56:48.085Z,98574.92
2023-01-05T18:59:17.911Z,98575.42
2023-01-05T19:01:48.140Z,98573.23
2023-01-05T19:04:17.963Z,98576.50
2023-01-05T19:06:47.922Z,98565.82
2023-01-05T19:09:18.144Z,98558.18
2023-01-05T19:11:48.404Z,98558.40
2023-01-05T19:14:18.949Z,98547.75
2023-01-05T19:16:50.103Z,98552.66
2023-01-05T19:19:21.015Z,98545.02
2023-01-05T19:21:50.260Z,98541.15
2023-01-05T19:24:20.771Z,98538.42
2023-01-05T19:26:50.352Z,98524.52
2023-01-05T19:29:20.155Z,98524.23
2023-01-05T19:31:50.215Z,98527.45
2023-01-05T19:34:20.296Z,98517.63
2023-01-05T19:36:49.725Z,98515.13
2023-01-05T19:39:20.401Z,98517.03
2023-01-05T19:41:49.763Z,98516.20
2023-01-05T19:44:22.187Z,98517.03
2023-01-05T19:46:52.884Z,98509.92
2023-01-05T19:49:23.722Z,98506.66
2023-01-05T19:51:53.338Z,98503.33
2023-01-05T19:54:23.750Z,98501.68
2023-01-05T19:56:52.958Z,98497.59
2023-01-05T19:59:24.300Z,98494.88
2023-01-05T20:01:54.397Z,98495.09
2023-01-05T20:04:23.624Z,98498.67
2023-01-05T20:06:52.762Z,98509.25
2023-01-05T20:09:22.016Z,98513.33
2023-01-05T20:11:54.773Z,98507.27
2023-01-05T20:14:23.086Z,98507.06
2023-01-05T20:16:53.711Z,98503.51
2023-01-05T20:19:23.077Z,98500.47
2023-01-05T20:21:52.330Z,98496.92
2023-01-05T20:24:25.600Z,98502.68
2023-01-05T20:26:55.478Z,98501.53
2023-01-05T20:29:24.705Z,98502.36
2023-01-05T20:32:04.122Z,98494.73
2023-01-05T20:34:35.083Z,98496.09
2023-01-05T20:37:04.937Z,98501.78
2023-01-05T20:39:34.204Z,98501.25
2023-01-05T20:42:05.015Z,98502.29
2023-01-05T20:44:35.868Z,98499.81
2023-01-05T20:47:05.189Z,98498.45
2023-01-05T20:49:34.589Z,98495.19
2023-01-05T20:52:03.786Z,98486.95
2023-01-05T20:54:34.464Z,98488.31
2023-01-05T20:57:03.682Z,98486.95
2023-01-05T20:59:33.763Z,98482.58
2023-01-05T21:02:05.753Z,98482.04
2023-01-05T21:04:33.667Z,98483.69
2023-01-05T21:07:02.887Z,98478.49
2023-01-05T21:09:32.168Z,98474.41
2023-01-05T21:12:03.090Z,98474.91
2023-01-05T21:14:32.388Z,98469.25
2023-01-05T21:17:01.802Z,98472.50
2023-01-05T21:19:31.101Z,98467.89
2023-01-05T21:22:00.307Z,98470.32
2023-01-05T21:24:29.685Z,98470.32
2023-01-05T21:26:59.074Z,98473.62
2023-01-05T21:29:28.253Z,98466.45
2023-01-05T21:31:58.048Z,98468.42
2023-01-05T21:34:27.346Z,98470.90
2023-01-05T21:36:56.591Z,98462.44
2023-01-05T21:39:26.302Z,98460.33
2023-01-05T21:42:13.087Z,98460.61
2023-01-05T21:44:42.372Z,98455.98
2023-01-05T21:47:11.765Z,98453.27
2023-01-05T21:49:40.962Z,98462.04
2023-01-05T21:52:30.489Z,98460.39
2023-01-05T21:55:17.447Z,98457.66
2023-01-05T21:57:47.375Z,98452.51
2023-01-05T22:00:17.683Z,98453.05
2023-01-05T22:02:47.453Z,98452.80
2023-01-05T22:05:19.637Z,98453.87
2023-01-05T22:07:49.232Z,98456.06
2023-01-05T22:10:18.794Z,98455.02
2023-01-05T22:12:48.368Z,98460.75
2023-01-05T22:15:21.963Z,98458.24
2023-01-05T22:17:53.688Z,98459.45
2023-01-05T22:20:22.882Z,98460.96
2023-01-05T22:22:52.049Z,98457.77
2023-01-05T22:25:21.336Z,98458.44
2023-01-05T22:27:50.478Z,98459.33
2023-01-05T22:30:20.249Z,98453.23
2023-01-05T22:32:50.641Z,98467.27
2023-01-05T22:35:22.948Z,98470.35
2023-01-05T22:37:53.605Z,98465.32
2023-01-05T22:40:23.175Z,98459.17
2023-01-05T22:42:52.407Z,98466.12
2023-01-05T22:45:21.603Z,98462.70
2023-01-05T22:47:50.965Z,98460.33
2023-01-05T22:50:20.327Z,98463.72
2023-01-05T22:52:50.795Z,98449.35
2023-01-05T22:55:22.940Z,98445.39
2023-01-05T22:57:51.690Z,98445.77
2023-01-05T23:00:21.061Z,98458.45
2023-01-05T23:02:50.516Z,98458.80
2023-01-05T23:05:19.943Z,98459.45
2023-01-05T23:07:49.753Z,98447.52
2023-01-05T23:10:19.299Z,98448.76
2023-01-05T23:12:49.638Z,98446.15
2023-01-05T23:15:19.616Z,98451.88
2023-01-05T23:17:49.699Z,98445.19
2023-01-05T23:20:19.782Z,98452.34
2023-01-05T23:22:49.690Z,98448.91
2023-01-05T23:25:20.028Z,98450.88
2023-01-05T23:27:49.484Z,98449.25
2023-01-05T23:30:19.623Z,98450.33
2023-01-05T23:32:49.771Z,98448.37
2023-01-05T23:35:19.093Z,98453.28
2023-01-05T23:37:48.605Z,98459.83
2023-01-05T23:40:19.317Z,98460.87
2023-01-05T23:42:50.007Z,98459.83
2023-01-05T23:45:20.392Z,98461.73
2023-01-05T23:47:50.382Z,98453.00
2023-01-05T23:50:21.498Z,98461.19
2023-01-05T23:52:50.839Z,98467.70
2023-01-05T23:55:20.564Z,98468.55
2023-01-05T23:57:50.369Z,98471.50
